sensor_id;sensor_type;location;lat;lon;timestamp;P1;durP1;ratioP1;P2;durP2;ratioP2
54795;SDS011;40693;43.884;20.340;2024-03-02T00:01:10;25.50;;;15.23;;
54795;SDS011;40693;43.884;20.340;2024-03-02T00:03:36;27.95;;;17.30;;
54795;SDS011;40693;43.884;20.340;2024-03-02T00:06:03;29.77;;;17.23;;
54795;SDS011;40693;43.884;20.340;2024-03-02T00:08:31;25.25;;;16.58;;
54795;SDS011;40693;43.884;20.340;2024-03-02T00:11:12;27.45;;;16.60;;
54795;SDS011;40693;43.884;20.340;2024-03-02T00:13:40;28.17;;;18.38;;
54795;SDS011;40693;43.884;20.340;2024-03-02T00:16:06;27.40;;;17.25;;
54795;SDS011;40693;43.884;20.340;2024-03-02T00:18:32;30.48;;;17.42;;
54795;SDS011;40693;43.884;20.340;2024-03-02T00:20:59;28.90;;;17.75;;
54795;SDS011;40693;43.884;20.340;2024-03-02T00:23:32;26.02;;;17.25;;
54795;SDS011;40693;43.884;20.340;2024-03-02T00:26:00;23.50;;;16.08;;
54795;SDS011;40693;43.884;20.340;2024-03-02T00:33:33;47.17;;;29.75;;
54795;SDS011;40693;43.884;20.340;2024-03-02T00:36:01;38.58;;;24.92;;
54795;SDS011;40693;43.884;20.340;2024-03-02T00:38:28;35.20;;;21.52;;
54795;SDS011;40693;43.884;20.340;2024-03-02T00:40:56;35.78;;;21.98;;
54795;SDS011;40693;43.884;20.340;2024-03-02T00:46:00;51.28;;;31.13;;
54795;SDS011;40693;43.884;20.340;2024-03-02T00:48:26;114.07;;;63.20;;
54795;SDS011;40693;43.884;20.340;2024-03-02T00:50:52;56.88;;;34.05;;
54795;SDS011;40693;43.884;20.340;2024-03-02T00:53:18;108.03;;;57.97;;
54795;SDS011;40693;43.884;20.340;2024-03-02T00:55:49;107.45;;;56.90;;
54795;SDS011;40693;43.884;20.340;2024-03-02T00:58:15;90.53;;;45.63;;
54795;SDS011;40693;43.884;20.340;2024-03-02T01:00:41;45.20;;;26.88;;
54795;SDS011;40693;43.884;20.340;2024-03-02T01:03:07;148.52;;;74.85;;
54795;SDS011;40693;43.884;20.340;2024-03-02T01:05:33;60.78;;;37.85;;
54795;SDS011;40693;43.884;20.340;2024-03-02T01:07:59;98.22;;;54.22;;
54795;SDS011;40693;43.884;20.340;2024-03-02T01:10:24;76.50;;;42.63;;
54795;SDS011;40693;43.884;20.340;2024-03-02T01:12:53;39.70;;;23.10;;
54795;SDS011;40693;43.884;20.340;2024-03-02T01:15:19;103.50;;;63.28;;
54795;SDS011;40693;43.884;20.340;2024-03-02T01:17:45;68.43;;;46.58;;
54795;SDS011;40693;43.884;20.340;2024-03-02T01:20:10;37.30;;;29.33;;
54795;SDS011;40693;43.884;20.340;2024-03-02T01:22:42;37.17;;;28.05;;
54795;SDS011;40693;43.884;20.340;2024-03-02T01:25:15;33.35;;;22.85;;
54795;SDS011;40693;43.884;20.340;2024-03-02T01:27:42;24.77;;;15.80;;
54795;SDS011;40693;43.884;20.340;2024-03-02T01:30:08;37.90;;;22.05;;
54795;SDS011;40693;43.884;20.340;2024-03-02T01:32:34;34.90;;;19.83;;
54795;SDS011;40693;43.884;20.340;2024-03-02T01:35:00;32.95;;;15.80;;
54795;SDS011;40693;43.884;20.340;2024-03-02T01:37:26;31.63;;;19.05;;
54795;SDS011;40693;43.884;20.340;2024-03-02T01:39:51;48.33;;;26.77;;
54795;SDS011;40693;43.884;20.340;2024-03-02T01:42:17;26.13;;;16.63;;
54795;SDS011;40693;43.884;20.340;2024-03-02T01:44:43;35.08;;;22.05;;
54795;SDS011;40693;43.884;20.340;2024-03-02T01:47:15;22.80;;;14.77;;
54795;SDS011;40693;43.884;20.340;2024-03-02T01:49:40;33.88;;;19.58;;
54795;SDS011;40693;43.884;20.340;2024-03-02T01:52:06;31.42;;;22.02;;
54795;SDS011;40693;43.884;20.340;2024-03-02T01:54:32;25.20;;;16.08;;
54795;SDS011;40693;43.884;20.340;2024-03-02T01:56:59;24.75;;;13.55;;
54795;SDS011;40693;43.884;20.340;2024-03-02T01:59:25;34.88;;;19.42;;
54795;SDS011;40693;43.884;20.340;2024-03-02T02:01:51;31.80;;;17.45;;
54795;SDS011;40693;43.884;20.340;2024-03-02T02:04:17;22.05;;;14.10;;
54795;SDS011;40693;43.884;20.340;2024-03-02T02:06:46;21.77;;;14.20;;
54795;SDS011;40693;43.884;20.340;2024-03-02T02:09:12;28.10;;;16.52;;
54795;SDS011;40693;43.884;20.340;2024-03-02T02:11:38;18.70;;;13.52;;
54795;SDS011;40693;43.884;20.340;2024-03-02T02:14:06;29.60;;;19.23;;
54795;SDS011;40693;43.884;20.340;2024-03-02T02:16:32;25.23;;;14.65;;
54795;SDS011;40693;43.884;20.340;2024-03-02T02:19:00;28.48;;;16.48;;
54795;SDS011;40693;43.884;20.340;2024-03-02T02:21:28;25.60;;;15.40;;
54795;SDS011;40693;43.884;20.340;2024-03-02T02:23:54;19.88;;;14.48;;
54795;SDS011;40693;43.884;20.340;2024-03-02T02:26:20;24.83;;;15.98;;
54795;SDS011;40693;43.884;20.340;2024-03-02T02:28:45;26.40;;;16.35;;
54795;SDS011;40693;43.884;20.340;2024-03-02T02:31:14;32.65;;;18.70;;
54795;SDS011;40693;43.884;20.340;2024-03-02T02:33:40;31.10;;;18.27;;
54795;SDS011;40693;43.884;20.340;2024-03-02T02:36:07;25.35;;;17.50;;
54795;SDS011;40693;43.884;20.340;2024-03-02T02:38:33;28.73;;;15.75;;
54795;SDS011;40693;43.884;20.340;2024-03-02T02:41:01;32.10;;;20.23;;
54795;SDS011;40693;43.884;20.340;2024-03-02T02:43:33;22.67;;;15.20;;
54795;SDS011;40693;43.884;20.340;2024-03-02T02:45:58;29.90;;;15.82;;
54795;SDS011;40693;43.884;20.340;2024-03-02T02:48:24;24.15;;;15.65;;
54795;SDS011;40693;43.884;20.340;2024-03-02T02:50:50;26.85;;;16.23;;
54795;SDS011;40693;43.884;20.340;2024-03-02T02:53:16;25.45;;;15.68;;
54795;SDS011;40693;43.884;20.340;2024-03-02T02:55:42;24.05;;;14.82;;
54795;SDS011;40693;43.884;20.340;2024-03-02T02:58:11;27.33;;;17.92;;
54795;SDS011;40693;43.884;20.340;2024-03-02T03:00:37;27.45;;;16.08;;
54795;SDS011;40693;43.884;20.340;2024-03-02T03:03:03;28.83;;;17.05;;
54795;SDS011;40693;43.884;20.340;2024-03-02T03:05:29;27.90;;;17.52;;
54795;SDS011;40693;43.884;20.340;2024-03-02T03:07:55;22.60;;;14.40;;
54795;SDS011;40693;43.884;20.340;2024-03-02T03:10:21;29.25;;;17.25;;
54795;SDS011;40693;43.884;20.340;2024-03-02T03:12:48;32.13;;;19.23;;
54795;SDS011;40693;43.884;20.340;2024-03-02T03:15:14;32.92;;;18.60;;
54795;SDS011;40693;43.884;20.340;2024-03-02T03:17:41;24.48;;;16.65;;
54795;SDS011;40693;43.884;20.340;2024-03-02T03:20:07;27.35;;;17.67;;
54795;SDS011;40693;43.884;20.340;2024-03-02T03:22:37;26.60;;;15.25;;
54795;SDS011;40693;43.884;20.340;2024-03-02T03:25:03;27.05;;;16.83;;
54795;SDS011;40693;43.884;20.340;2024-03-02T03:27:29;30.00;;;19.42;;
54795;SDS011;40693;43.884;20.340;2024-03-02T03:29:58;36.03;;;19.98;;
54795;SDS011;40693;43.884;20.340;2024-03-02T03:32:23;36.97;;;22.55;;
54795;SDS011;40693;43.884;20.340;2024-03-02T03:34:52;27.23;;;18.20;;
54795;SDS011;40693;43.884;20.340;2024-03-02T03:37:18;27.02;;;18.02;;
54795;SDS011;40693;43.884;20.340;2024-03-02T03:39:44;31.58;;;18.10;;
54795;SDS011;40693;43.884;20.340;2024-03-02T03:42:09;27.45;;;17.77;;
54795;SDS011;40693;43.884;20.340;2024-03-02T03:44:35;26.73;;;16.52;;
54795;SDS011;40693;43.884;20.340;2024-03-02T03:47:01;26.58;;;17.05;;
54795;SDS011;40693;43.884;20.340;2024-03-02T03:49:27;27.55;;;16.17;;
54795;SDS011;40693;43.884;20.340;2024-03-02T03:51:53;22.60;;;14.80;;
54795;SDS011;40693;43.884;20.340;2024-03-02T03:54:21;65.75;;;37.88;;
54795;SDS011;40693;43.884;20.340;2024-03-02T03:56:47;38.05;;;24.77;;
54795;SDS011;40693;43.884;20.340;2024-03-02T03:59:13;24.10;;;16.10;;
54795;SDS011;40693;43.884;20.340;2024-03-02T04:01:38;24.00;;;14.02;;
54795;SDS011;40693;43.884;20.340;2024-03-02T04:04:04;23.75;;;15.15;;
54795;SDS011;40693;43.884;20.340;2024-03-02T04:06:32;23.27;;;14.68;;
54795;SDS011;40693;43.884;20.340;2024-03-02T04:08:58;27.63;;;17.00;;
54795;SDS011;40693;43.884;20.340;2024-03-02T04:11:23;23.17;;;15.77;;
54795;SDS011;40693;43.884;20.340;2024-03-02T04:13:49;27.83;;;16.35;;
54795;SDS011;40693;43.884;20.340;2024-03-02T04:16:15;21.23;;;15.43;;
54795;SDS011;40693;43.884;20.340;2024-03-02T04:18:41;24.83;;;14.85;;
54795;SDS011;40693;43.884;20.340;2024-03-02T04:21:06;19.90;;;14.57;;
54795;SDS011;40693;43.884;20.340;2024-03-02T04:23:32;24.60;;;15.93;;
54795;SDS011;40693;43.884;20.340;2024-03-02T04:25:58;21.73;;;14.07;;
54795;SDS011;40693;43.884;20.340;2024-03-02T04:28:24;21.58;;;15.40;;
54795;SDS011;40693;43.884;20.340;2024-03-02T04:30:50;22.77;;;13.55;;
54795;SDS011;40693;43.884;20.340;2024-03-02T04:33:15;29.40;;;16.77;;
54795;SDS011;40693;43.884;20.340;2024-03-02T04:35:41;23.00;;;14.20;;
54795;SDS011;40693;43.884;20.340;2024-03-02T04:38:07;22.20;;;14.35;;
54795;SDS011;40693;43.884;20.340;2024-03-02T04:40:33;22.58;;;15.27;;
54795;SDS011;40693;43.884;20.340;2024-03-02T04:42:58;22.98;;;15.23;;
54795;SDS011;40693;43.884;20.340;2024-03-02T04:45:24;24.70;;;15.70;;
54795;SDS011;40693;43.884;20.340;2024-03-02T04:47:50;27.58;;;17.60;;
54795;SDS011;40693;43.884;20.340;2024-03-02T04:50:16;25.52;;;15.88;;
54795;SDS011;40693;43.884;20.340;2024-03-02T04:52:42;21.70;;;15.95;;
54795;SDS011;40693;43.884;20.340;2024-03-02T04:55:07;20.60;;;14.98;;
54795;SDS011;40693;43.884;20.340;2024-03-02T04:57:53;24.75;;;15.80;;
54795;SDS011;40693;43.884;20.340;2024-03-02T05:00:22;27.88;;;19.13;;
54795;SDS011;40693;43.884;20.340;2024-03-02T05:02:48;30.85;;;19.75;;
54795;SDS011;40693;43.884;20.340;2024-03-02T05:05:16;36.22;;;19.80;;
54795;SDS011;40693;43.884;20.340;2024-03-02T05:07:42;32.85;;;21.17;;
54795;SDS011;40693;43.884;20.340;2024-03-02T05:10:09;23.33;;;16.20;;
54795;SDS011;40693;43.884;20.340;2024-03-02T05:12:35;24.13;;;18.48;;
54795;SDS011;40693;43.884;20.340;2024-03-02T05:15:01;23.75;;;15.85;;
54795;SDS011;40693;43.884;20.340;2024-03-02T05:17:27;24.50;;;16.35;;
54795;SDS011;40693;43.884;20.340;2024-03-02T05:19:52;26.80;;;18.10;;
54795;SDS011;40693;43.884;20.340;2024-03-02T05:22:18;27.23;;;18.20;;
54795;SDS011;40693;43.884;20.340;2024-03-02T05:24:44;25.35;;;16.30;;
54795;SDS011;40693;43.884;20.340;2024-03-02T05:27:10;21.10;;;15.18;;
54795;SDS011;40693;43.884;20.340;2024-03-02T05:29:35;20.10;;;13.35;;
54795;SDS011;40693;43.884;20.340;2024-03-02T05:32:02;19.08;;;13.35;;
54795;SDS011;40693;43.884;20.340;2024-03-02T05:34:27;21.00;;;13.50;;
54795;SDS011;40693;43.884;20.340;2024-03-02T05:36:54;23.90;;;13.50;;
54795;SDS011;40693;43.884;20.340;2024-03-02T05:39:20;19.52;;;13.05;;
54795;SDS011;40693;43.884;20.340;2024-03-02T05:41:45;22.60;;;14.15;;
54795;SDS011;40693;43.884;20.340;2024-03-02T05:44:11;21.00;;;13.05;;
54795;SDS011;40693;43.884;20.340;2024-03-02T05:46:40;17.67;;;12.18;;
54795;SDS011;40693;43.884;20.340;2024-03-02T05:49:07;19.10;;;13.15;;
54795;SDS011;40693;43.884;20.340;2024-03-02T05:51:33;16.50;;;12.65;;
54795;SDS011;40693;43.884;20.340;2024-03-02T05:53:59;21.20;;;14.02;;
54795;SDS011;40693;43.884;20.340;2024-03-02T05:56:24;24.83;;;15.63;;
54795;SDS011;40693;43.884;20.340;2024-03-02T05:58:50;23.27;;;15.95;;
54795;SDS011;40693;43.884;20.340;2024-03-02T06:01:34;30.45;;;17.70;;
54795;SDS011;40693;43.884;20.340;2024-03-02T06:04:00;25.15;;;17.98;;
54795;SDS011;40693;43.884;20.340;2024-03-02T06:06:26;28.92;;;18.90;;
54795;SDS011;40693;43.884;20.340;2024-03-02T06:08:51;31.83;;;19.85;;
54795;SDS011;40693;43.884;20.340;2024-03-02T06:11:21;29.83;;;20.05;;
54795;SDS011;40693;43.884;20.340;2024-03-02T06:13:46;26.88;;;18.85;;
54795;SDS011;40693;43.884;20.340;2024-03-02T06:16:12;25.95;;;18.77;;
54795;SDS011;40693;43.884;20.340;2024-03-02T06:18:38;23.42;;;14.95;;
54795;SDS011;40693;43.884;20.340;2024-03-02T06:21:04;25.45;;;16.88;;
54795;SDS011;40693;43.884;20.340;2024-03-02T06:23:30;25.25;;;17.05;;
54795;SDS011;40693;43.884;20.340;2024-03-02T06:25:55;20.88;;;15.52;;
54795;SDS011;40693;43.884;20.340;2024-03-02T06:28:21;19.77;;;12.95;;
54795;SDS011;40693;43.884;20.340;2024-03-02T06:30:47;20.90;;;14.02;;
54795;SDS011;40693;43.884;20.340;2024-03-02T06:33:13;19.77;;;15.35;;
54795;SDS011;40693;43.884;20.340;2024-03-02T06:35:38;23.40;;;14.95;;
54795;SDS011;40693;43.884;20.340;2024-03-02T06:38:04;34.20;;;21.80;;
54795;SDS011;40693;43.884;20.340;2024-03-02T06:40:30;32.53;;;22.38;;
54795;SDS011;40693;43.884;20.340;2024-03-02T06:42:56;23.00;;;15.18;;
54795;SDS011;40693;43.884;20.340;2024-03-02T06:45:22;24.35;;;15.98;;
54795;SDS011;40693;43.884;20.340;2024-03-02T06:47:47;30.63;;;18.67;;
54795;SDS011;40693;43.884;20.340;2024-03-02T06:50:14;22.23;;;15.35;;
54795;SDS011;40693;43.884;20.340;2024-03-02T06:52:39;23.83;;;16.13;;
54795;SDS011;40693;43.884;20.340;2024-03-02T06:55:08;32.35;;;20.50;;
54795;SDS011;40693;43.884;20.340;2024-03-02T06:57:34;24.23;;;15.52;;
54795;SDS011;40693;43.884;20.340;2024-03-02T07:00:00;23.92;;;16.95;;
54795;SDS011;40693;43.884;20.340;2024-03-02T07:02:26;32.90;;;20.10;;
54795;SDS011;40693;43.884;20.340;2024-03-02T07:04:53;26.33;;;17.80;;
54795;SDS011;40693;43.884;20.340;2024-03-02T07:07:19;28.25;;;16.75;;
54795;SDS011;40693;43.884;20.340;2024-03-02T07:09:45;22.30;;;15.82;;
54795;SDS011;40693;43.884;20.340;2024-03-02T07:12:13;26.00;;;16.05;;
54795;SDS011;40693;43.884;20.340;2024-03-02T07:14:39;27.42;;;16.67;;
54795;SDS011;40693;43.884;20.340;2024-03-02T07:17:36;27.58;;;18.05;;
54795;SDS011;40693;43.884;20.340;2024-03-02T07:20:02;28.88;;;18.48;;
54795;SDS011;40693;43.884;20.340;2024-03-02T07:22:28;24.73;;;17.23;;
54795;SDS011;40693;43.884;20.340;2024-03-02T07:24:54;29.25;;;19.75;;
54795;SDS011;40693;43.884;20.340;2024-03-02T07:27:20;29.05;;;19.08;;
54795;SDS011;40693;43.884;20.340;2024-03-02T07:29:46;25.77;;;17.65;;
54795;SDS011;40693;43.884;20.340;2024-03-02T07:32:12;32.28;;;21.25;;
54795;SDS011;40693;43.884;20.340;2024-03-02T07:34:38;28.48;;;21.20;;
54795;SDS011;40693;43.884;20.340;2024-03-02T07:37:04;32.90;;;19.42;;
54795;SDS011;40693;43.884;20.340;2024-03-02T07:39:30;27.20;;;18.05;;
54795;SDS011;40693;43.884;20.340;2024-03-02T07:41:56;35.10;;;21.92;;
54795;SDS011;40693;43.884;20.340;2024-03-02T07:44:22;26.00;;;18.27;;
54795;SDS011;40693;43.884;20.340;2024-03-02T07:46:48;29.30;;;19.63;;
54795;SDS011;40693;43.884;20.340;2024-03-02T07:49:17;25.23;;;17.83;;
54795;SDS011;40693;43.884;20.340;2024-03-02T07:51:44;26.27;;;18.42;;
54795;SDS011;40693;43.884;20.340;2024-03-02T07:54:10;23.38;;;17.85;;
54795;SDS011;40693;43.884;20.340;2024-03-02T07:56:36;27.05;;;18.33;;
54795;SDS011;40693;43.884;20.340;2024-03-02T07:59:02;27.90;;;18.75;;
54795;SDS011;40693;43.884;20.340;2024-03-02T08:01:28;24.63;;;17.40;;
54795;SDS011;40693;43.884;20.340;2024-03-02T08:03:58;35.25;;;22.23;;
54795;SDS011;40693;43.884;20.340;2024-03-02T08:06:24;27.73;;;18.83;;
54795;SDS011;40693;43.884;20.340;2024-03-02T08:08:53;28.70;;;19.40;;
54795;SDS011;40693;43.884;20.340;2024-03-02T08:11:20;26.02;;;17.00;;
54795;SDS011;40693;43.884;20.340;2024-03-02T08:13:46;33.50;;;23.23;;
54795;SDS011;40693;43.884;20.340;2024-03-02T08:16:13;28.05;;;16.60;;
54795;SDS011;40693;43.884;20.340;2024-03-02T08:18:44;20.58;;;14.40;;
54795;SDS011;40693;43.884;20.340;2024-03-02T08:21:13;23.95;;;13.45;;
54795;SDS011;40693;43.884;20.340;2024-03-02T08:23:40;19.00;;;14.20;;
54795;SDS011;40693;43.884;20.340;2024-03-02T08:26:07;23.50;;;15.50;;
54795;SDS011;40693;43.884;20.340;2024-03-02T08:28:36;25.45;;;17.52;;
54795;SDS011;40693;43.884;20.340;2024-03-02T08:31:05;27.13;;;17.40;;
54795;SDS011;40693;43.884;20.340;2024-03-02T08:33:32;23.75;;;15.50;;
54795;SDS011;40693;43.884;20.340;2024-03-02T08:35:58;21.60;;;14.98;;
54795;SDS011;40693;43.884;20.340;2024-03-02T08:38:24;29.75;;;17.98;;
54795;SDS011;40693;43.884;20.340;2024-03-02T08:40:50;22.23;;;14.63;;
54795;SDS011;40693;43.884;20.340;2024-03-02T08:43:16;18.75;;;12.10;;
54795;SDS011;40693;43.884;20.340;2024-03-02T08:45:42;22.90;;;14.48;;
54795;SDS011;40693;43.884;20.340;2024-03-02T08:48:08;16.77;;;12.00;;
54795;SDS011;40693;43.884;20.340;2024-03-02T08:50:34;23.73;;;13.07;;
54795;SDS011;40693;43.884;20.340;2024-03-02T08:53:00;18.58;;;12.90;;
54795;SDS011;40693;43.884;20.340;2024-03-02T08:55:26;18.50;;;12.85;;
54795;SDS011;40693;43.884;20.340;2024-03-02T08:57:52;19.90;;;11.68;;
54795;SDS011;40693;43.884;20.340;2024-03-02T09:00:18;18.40;;;11.68;;
54795;SDS011;40693;43.884;20.340;2024-03-02T09:02:44;25.67;;;17.38;;
54795;SDS011;40693;43.884;20.340;2024-03-02T09:05:10;27.00;;;17.10;;
54795;SDS011;40693;43.884;20.340;2024-03-02T09:07:36;17.70;;;12.07;;
54795;SDS011;40693;43.884;20.340;2024-03-02T09:10:04;16.65;;;12.93;;
54795;SDS011;40693;43.884;20.340;2024-03-02T09:12:31;14.98;;;11.45;;
54795;SDS011;40693;43.884;20.340;2024-03-02T09:14:57;15.10;;;11.18;;
54795;SDS011;40693;43.884;20.340;2024-03-02T09:17:23;11.95;;;8.98;;
54795;SDS011;40693;43.884;20.340;2024-03-02T09:19:49;25.55;;;12.57;;
54795;SDS011;40693;43.884;20.340;2024-03-02T09:22:18;13.98;;;10.93;;
54795;SDS011;40693;43.884;20.340;2024-03-02T09:24:44;20.55;;;12.80;;
54795;SDS011;40693;43.884;20.340;2024-03-02T09:27:10;20.67;;;14.18;;
54795;SDS011;40693;43.884;20.340;2024-03-02T09:29:36;19.83;;;14.90;;
54795;SDS011;40693;43.884;20.340;2024-03-02T09:32:01;18.10;;;11.15;;
54795;SDS011;40693;43.884;20.340;2024-03-02T09:34:27;18.15;;;12.73;;
54795;SDS011;40693;43.884;20.340;2024-03-02T09:36:53;22.75;;;11.10;;
54795;SDS011;40693;43.884;20.340;2024-03-02T09:39:19;19.35;;;12.95;;
54795;SDS011;40693;43.884;20.340;2024-03-02T09:41:45;17.33;;;11.55;;
54795;SDS011;40693;43.884;20.340;2024-03-02T09:44:12;15.88;;;9.95;;
54795;SDS011;40693;43.884;20.340;2024-03-02T09:46:38;12.90;;;9.68;;
54795;SDS011;40693;43.884;20.340;2024-03-02T09:49:03;13.15;;;9.25;;
54795;SDS011;40693;43.884;20.340;2024-03-02T09:51:30;14.73;;;9.65;;
54795;SDS011;40693;43.884;20.340;2024-03-02T09:53:56;14.05;;;9.00;;
54795;SDS011;40693;43.884;20.340;2024-03-02T09:56:22;12.98;;;9.15;;
54795;SDS011;40693;43.884;20.340;2024-03-02T09:58:48;24.65;;;14.40;;
54795;SDS011;40693;43.884;20.340;2024-03-02T10:01:14;23.60;;;14.02;;
54795;SDS011;40693;43.884;20.340;2024-03-02T10:03:40;17.02;;;8.77;;
54795;SDS011;40693;43.884;20.340;2024-03-02T10:06:24;15.10;;;11.00;;
54795;SDS011;40693;43.884;20.340;2024-03-02T10:09:15;17.83;;;11.82;;
54795;SDS011;40693;43.884;20.340;2024-03-02T10:12:11;25.70;;;13.60;;
54795;SDS011;40693;43.884;20.340;2024-03-02T10:17:45;13.43;;;8.68;;
54795;SDS011;40693;43.884;20.340;2024-03-02T10:20:23;15.80;;;9.45;;
54795;SDS011;40693;43.884;20.340;2024-03-02T10:22:50;11.07;;;7.68;;
54795;SDS011;40693;43.884;20.340;2024-03-02T10:25:32;29.33;;;16.23;;
54795;SDS011;40693;43.884;20.340;2024-03-02T10:27:59;14.10;;;8.65;;
54795;SDS011;40693;43.884;20.340;2024-03-02T10:30:25;17.40;;;11.40;;
54795;SDS011;40693;43.884;20.340;2024-03-02T10:32:52;13.32;;;10.13;;
54795;SDS011;40693;43.884;20.340;2024-03-02T10:35:22;15.27;;;9.63;;
54795;SDS011;40693;43.884;20.340;2024-03-02T10:37:49;13.13;;;7.57;;
54795;SDS011;40693;43.884;20.340;2024-03-02T10:40:15;12.63;;;6.90;;
54795;SDS011;40693;43.884;20.340;2024-03-02T10:42:42;15.63;;;9.52;;
54795;SDS011;40693;43.884;20.340;2024-03-02T10:45:11;17.45;;;10.80;;
54795;SDS011;40693;43.884;20.340;2024-03-02T10:47:40;20.83;;;13.63;;
54795;SDS011;40693;43.884;20.340;2024-03-02T10:50:08;19.67;;;12.60;;
54795;SDS011;40693;43.884;20.340;2024-03-02T10:52:35;16.50;;;11.48;;
54795;SDS011;40693;43.884;20.340;2024-03-02T10:55:01;17.88;;;8.80;;
54795;SDS011;40693;43.884;20.340;2024-03-02T10:57:33;12.25;;;9.40;;
54795;SDS011;40693;43.884;20.340;2024-03-02T11:00:06;14.50;;;9.20;;
54795;SDS011;40693;43.884;20.340;2024-03-02T11:02:40;22.83;;;12.45;;
54795;SDS011;40693;43.884;20.340;2024-03-02T11:05:18;20.90;;;11.80;;
54795;SDS011;40693;43.884;20.340;2024-03-02T11:07:59;14.90;;;9.48;;
54795;SDS011;40693;43.884;20.340;2024-03-02T11:10:32;16.20;;;9.60;;
54795;SDS011;40693;43.884;20.340;2024-03-02T11:13:09;27.75;;;13.70;;
54795;SDS011;40693;43.884;20.340;2024-03-02T11:15:36;12.52;;;8.02;;
54795;SDS011;40693;43.884;20.340;2024-03-02T11:18:03;10.10;;;7.47;;
54795;SDS011;40693;43.884;20.340;2024-03-02T11:20:34;12.50;;;8.23;;
54795;SDS011;40693;43.884;20.340;2024-03-02T11:23:08;19.63;;;10.60;;
54795;SDS011;40693;43.884;20.340;2024-03-02T11:25:35;13.55;;;7.80;;
54795;SDS011;40693;43.884;20.340;2024-03-02T11:32:58;12.05;;;7.60;;
54795;SDS011;40693;43.884;20.340;2024-03-02T11:35:24;10.45;;;6.78;;
54795;SDS011;40693;43.884;20.340;2024-03-02T11:37:51;12.25;;;6.70;;
54795;SDS011;40693;43.884;20.340;2024-03-02T11:40:36;9.50;;;6.80;;
54795;SDS011;40693;43.884;20.340;2024-03-02T11:43:04;13.05;;;8.27;;
54795;SDS011;40693;43.884;20.340;2024-03-02T11:45:31;18.23;;;10.65;;
54795;SDS011;40693;43.884;20.340;2024-03-02T11:47:58;11.63;;;7.03;;
54795;SDS011;40693;43.884;20.340;2024-03-02T11:50:33;13.05;;;7.63;;
54795;SDS011;40693;43.884;20.340;2024-03-02T11:53:07;12.90;;;6.15;;
54795;SDS011;40693;43.884;20.340;2024-03-02T11:55:35;13.43;;;6.00;;
54795;SDS011;40693;43.884;20.340;2024-03-02T11:58:04;10.00;;;5.85;;
54795;SDS011;40693;43.884;20.340;2024-03-02T12:00:31;14.07;;;5.15;;
54795;SDS011;40693;43.884;20.340;2024-03-02T12:03:04;15.80;;;8.45;;
54795;SDS011;40693;43.884;20.340;2024-03-02T12:05:47;15.43;;;5.88;;
54795;SDS011;40693;43.884;20.340;2024-03-02T12:08:20;10.48;;;5.53;;
54795;SDS011;40693;43.884;20.340;2024-03-02T12:10:58;16.35;;;9.18;;
54795;SDS011;40693;43.884;20.340;2024-03-02T12:13:27;11.93;;;6.85;;
54795;SDS011;40693;43.884;20.340;2024-03-02T12:16:05;11.73;;;6.78;;
54795;SDS011;40693;43.884;20.340;2024-03-02T12:18:35;9.52;;;4.88;;
54795;SDS011;40693;43.884;20.340;2024-03-02T12:21:01;14.55;;;6.47;;
54795;SDS011;40693;43.884;20.340;2024-03-02T12:23:29;8.68;;;5.82;;
54795;SDS011;40693;43.884;20.340;2024-03-02T12:25:54;16.25;;;7.30;;
54795;SDS011;40693;43.884;20.340;2024-03-02T12:28:21;11.32;;;5.07;;
54795;SDS011;40693;43.884;20.340;2024-03-02T12:30:47;9.20;;;5.65;;
54795;SDS011;40693;43.884;20.340;2024-03-02T12:33:14;12.45;;;7.00;;
54795;SDS011;40693;43.884;20.340;2024-03-02T12:35:40;15.07;;;8.02;;
54795;SDS011;40693;43.884;20.340;2024-03-02T12:38:06;15.57;;;8.30;;
54795;SDS011;40693;43.884;20.340;2024-03-02T12:40:32;16.77;;;10.15;;
54795;SDS011;40693;43.884;20.340;2024-03-02T12:42:58;14.07;;;7.75;;
54795;SDS011;40693;43.884;20.340;2024-03-02T12:45:23;17.20;;;9.20;;
54795;SDS011;40693;43.884;20.340;2024-03-02T12:47:50;11.52;;;7.18;;
54795;SDS011;40693;43.884;20.340;2024-03-02T12:50:16;16.88;;;10.23;;
54795;SDS011;40693;43.884;20.340;2024-03-02T12:52:42;12.90;;;7.53;;
54795;SDS011;40693;43.884;20.340;2024-03-02T12:55:09;15.00;;;6.55;;
54795;SDS011;40693;43.884;20.340;2024-03-02T12:57:35;11.57;;;6.65;;
54795;SDS011;40693;43.884;20.340;2024-03-02T13:00:01;14.95;;;9.13;;
54795;SDS011;40693;43.884;20.340;2024-03-02T13:02:34;14.40;;;9.68;;
54795;SDS011;40693;43.884;20.340;2024-03-02T13:05:00;21.30;;;10.68;;
54795;SDS011;40693;43.884;20.340;2024-03-02T13:07:27;16.90;;;9.75;;
54795;SDS011;40693;43.884;20.340;2024-03-02T13:09:54;13.82;;;8.65;;
54795;SDS011;40693;43.884;20.340;2024-03-02T13:12:21;11.52;;;7.75;;
54795;SDS011;40693;43.884;20.340;2024-03-02T13:14:49;14.52;;;7.35;;
54795;SDS011;40693;43.884;20.340;2024-03-02T13:17:19;16.50;;;9.25;;
54795;SDS011;40693;43.884;20.340;2024-03-02T13:19:58;15.02;;;9.30;;
54795;SDS011;40693;43.884;20.340;2024-03-02T13:22:25;17.05;;;8.52;;
54795;SDS011;40693;43.884;20.340;2024-03-02T13:24:51;13.15;;;6.47;;
54795;SDS011;40693;43.884;20.340;2024-03-02T13:27:19;8.40;;;5.45;;
54795;SDS011;40693;43.884;20.340;2024-03-02T13:29:45;9.80;;;5.43;;
54795;SDS011;40693;43.884;20.340;2024-03-02T13:32:13;9.85;;;6.40;;
54795;SDS011;40693;43.884;20.340;2024-03-02T13:34:42;14.77;;;6.75;;
54795;SDS011;40693;43.884;20.340;2024-03-02T13:37:08;11.73;;;6.07;;
54795;SDS011;40693;43.884;20.340;2024-03-02T13:39:34;16.23;;;9.85;;
54795;SDS011;40693;43.884;20.340;2024-03-02T13:42:06;13.60;;;7.15;;
54795;SDS011;40693;43.884;20.340;2024-03-02T13:44:37;12.70;;;8.82;;
54795;SDS011;40693;43.884;20.340;2024-03-02T13:47:03;11.95;;;6.95;;
54795;SDS011;40693;43.884;20.340;2024-03-02T13:49:30;11.85;;;6.88;;
54795;SDS011;40693;43.884;20.340;2024-03-02T13:52:01;17.02;;;6.78;;
54795;SDS011;40693;43.884;20.340;2024-03-02T13:54:36;13.32;;;9.40;;
54795;SDS011;40693;43.884;20.340;2024-03-02T13:57:07;9.60;;;5.90;;
54795;SDS011;40693;43.884;20.340;2024-03-02T13:59:34;13.63;;;6.18;;
54795;SDS011;40693;43.884;20.340;2024-03-02T14:02:01;14.25;;;7.05;;
54795;SDS011;40693;43.884;20.340;2024-03-02T14:04:34;13.95;;;7.30;;
54795;SDS011;40693;43.884;20.340;2024-03-02T14:07:00;21.13;;;9.75;;
54795;SDS011;40693;43.884;20.340;2024-03-02T14:09:26;26.00;;;15.15;;
54795;SDS011;40693;43.884;20.340;2024-03-02T14:11:53;13.32;;;8.15;;
54795;SDS011;40693;43.884;20.340;2024-03-02T14:14:19;19.40;;;10.43;;
54795;SDS011;40693;43.884;20.340;2024-03-02T14:16:45;11.60;;;7.38;;
54795;SDS011;40693;43.884;20.340;2024-03-02T14:19:11;15.18;;;9.27;;
54795;SDS011;40693;43.884;20.340;2024-03-02T14:21:40;16.08;;;9.27;;
54795;SDS011;40693;43.884;20.340;2024-03-02T14:24:06;18.08;;;8.98;;
54795;SDS011;40693;43.884;20.340;2024-03-02T14:26:32;16.70;;;10.20;;
54795;SDS011;40693;43.884;20.340;2024-03-02T14:28:58;17.65;;;10.00;;